Lynn, Michigan
Current Conditions -  °F | °C
As of 7:57 PM on Monday 24 Nov 2014 (Local Time) from KPHN Reporting Station
Overcast Overcast  
Wind Chill: 30°   Ceiling: 2600
Heat Index: 39°   Visibility: 10mi
Dew Point: 30°   Wind: 20mph
Humidity: 70%   Direction: 210°SSW
Pressure: 29.53"   Gusts: 30mph
Location:  43.127°N, 82.8328°W
Report Text: KPHN 250057Z AUTO 21017G26KT 10SM OVC026 04/M01 A2953 RMK AO2
Loading
Personal Weather Stations






























Interactive Weather Map New forecast layout! Learn more

10-Day Weather Forecast

Advertisements
Track Severe Weather on mobile